Time;durP1;ratioP1;P1;durP2;ratioP2;P2;SDS_P1;SDS_P2;PMS_P1;PMS_P2;Temp;Humidity;BMP_temperature;BMP_pressure;BME280_temperature;BME280_humidity;BME280_pressure;Samples;Min_cycle;Max_cycle;Signal;HPM_P1;HPM_P2
2023/08/27 00:51:50;;;;;;;0.43;0.43;;;;;;;25.15;60.54;99031.31;4952007;27;20809;-95
2023/08/27 01:04:47;;;;;;;0.35;0.35;;;;;;;25.08;60.54;99004.50;4459099;27;20063;-96
2023/08/27 01:07:30;;;;;;;1.10;1.00;;;;;;;25.06;60.52;99006.44;4415284;27;20102;-95
2023/08/27 01:10:22;;;;;;;0.65;0.65;;;;;;;25.46;60.54;99042.25;4365075;32;20110;-95
2023/08/27 01:13:07;;;;;;;3.22;1.55;;;;;;;25.20;60.54;99021.00;4333607;32;20123;-96
2023/08/27 01:15:36;;;;;;;1.48;1.37;;;;;;;25.01;60.53;99026.56;4333711;32;20075;-96
2023/08/27 01:18:04;;;;;;;0.50;0.50;;;;;;;24.98;60.53;99037.50;4346284;32;20460;-96
2023/08/27 01:20:32;;;;;;;1.08;1.00;;;;;;;25.04;60.53;99044.88;4330750;32;20482;-95
2023/08/27 01:23:00;;;;;;;0.52;0.50;;;;;;;24.91;60.52;99045.31;4328397;32;20098;-94
2023/08/27 01:26:06;;;;;;;1.08;0.73;;;;;;;24.73;60.50;99042.69;4328094;32;20145;-95
2023/08/27 01:28:39;;;;;;;0.73;0.73;;;;;;;25.21;60.54;99041.31;4337392;32;20115;-95
2023/08/27 01:31:58;;;;;;;1.75;0.90;;;;;;;24.95;60.53;99032.50;4333806;32;20079;-96
2023/08/27 01:34:50;;;;;;;1.08;0.77;;;;;;;25.06;60.52;99024.25;4361528;32;20122;-96
2023/08/27 01:37:38;;;;;;;2.65;1.55;;;;;;;25.03;60.53;99027.25;4350196;32;20064;-96
2023/08/27 01:40:35;;;;;;;0.20;0.20;;;;;;;24.95;60.52;99029.84;4373762;32;20129;-95
2023/08/27 01:43:04;;;;;;;0.70;0.65;;;;;;;24.94;60.53;99030.84;4347512;32;20079;-96
2023/08/27 01:45:34;;;;;;;4.28;1.55;;;;;;;25.35;60.55;99019.41;4334846;32;20117;-96
2023/08/27 01:48:07;;;;;;;0.98;0.98;;;;;;;25.06;60.53;99021.59;4348909;32;20165;-96
2023/08/27 01:50:35;;;;;;;1.67;1.30;;;;;;;25.34;60.54;99016.91;4334917;32;20103;-96
2023/08/27 01:53:21;;;;;;;1.27;0.90;;;;;;;24.94;60.52;99015.69;4348583;32;20071;-96
2023/08/27 01:56:05;;;;;;;1.90;1.00;;;;;;;24.80;60.51;99016.25;4348280;33;20072;-96
2023/08/27 01:58:31;;;;;;;4.78;0.95;;;;;;;24.88;60.52;99019.00;4364501;32;20154;-96
2023/08/27 02:00:57;;;;;;;0.57;0.57;;;;;;;24.92;60.52;99028.34;4330736;32;20099;-96
2023/08/27 02:04:08;;;;;;;1.65;1.15;;;;;;;25.07;60.53;99029.41;4330256;32;20142;-96
2023/08/27 02:06:34;;;;;;;1.05;0.95;;;;;;;25.10;60.53;99036.28;4366421;32;20099;-95
2023/08/27 02:09:06;;;;;;;0.68;0.62;;;;;;;24.82;60.51;99034.75;4345475;32;20341;-96
2023/08/27 02:11:44;;;;;;;0.85;0.85;;;;;;;25.00;60.53;99033.72;4356202;32;20114;-96
2023/08/27 02:14:18;;;;;;;2.00;1.40;;;;;;;24.98;60.52;99032.19;4348923;32;20080;-96
2023/08/27 02:17:20;;;;;;;0.47;0.47;;;;;;;24.94;60.52;99021.03;4372418;32;20095;-96
2023/08/27 03:01:36;;;;;;;1.17;1.08;;;;;;;24.90;60.52;99040.97;4328931;33;20113;-96
2023/08/27 03:04:23;;;;;;;1.27;0.88;;;;;;;24.80;60.52;99046.38;4306436;33;20092;-96
2023/08/27 03:07:02;;;;;;;0.75;0.47;;;;;;;24.68;60.51;99034.34;4303585;33;20115;-96
2023/08/27 03:09:49;;;;;;;0.47;0.47;;;;;;;24.53;60.51;99029.72;4316023;33;20076;-96
2023/08/27 03:12:26;;;;;;;0.37;0.30;;;;;;;24.58;60.50;99036.25;4304673;33;20191;-96
2023/08/27 03:15:10;;;;;;;2.12;1.92;;;;;;;24.38;60.50;99040.94;4354745;27;20081;-95
2023/08/27 03:17:54;;;;;;;0.43;0.43;;;;;;;24.51;60.49;99048.50;4290075;33;20803;-95
2023/08/27 03:20:40;;;;;;;0.20;0.20;;;;;;;24.46;60.51;99050.81;4304263;33;20829;-96
2023/08/27 03:23:21;;;;;;;2.80;0.90;;;;;;;24.37;60.50;99054.38;4290691;33;20732;-96
2023/08/27 03:25:53;;;;;;;0.00;0.00;;;;;;;24.32;60.49;99052.16;4305610;33;20816;-96
2023/08/27 03:28:39;;;;;;;0.93;0.55;;;;;;;24.23;60.48;99055.72;4314516;33;20095;-96
2023/08/27 03:31:09;;;;;;;1.45;0.70;;;;;;;24.28;60.49;99057.94;4299027;33;20075;-96
2023/08/27 03:33:34;;;;;;;0.00;0.00;;;;;;;24.23;60.49;99057.56;4326613;33;20109;-95
2023/08/27 03:36:00;;;;;;;0.30;0.20;;;;;;;24.24;60.49;99057.41;4328934;33;20107;-96
2023/08/27 03:38:28;;;;;;;0.75;0.75;;;;;;;24.26;60.49;99059.91;4327838;33;20103;-95
2023/08/27 03:40:57;;;;;;;0.00;0.00;;;;;;;24.13;60.49;99061.13;4328708;33;20096;-95
2023/08/27 03:43:22;;;;;;;1.45;0.65;;;;;;;24.16;60.48;99063.50;4324989;33;20476;-96
2023/08/27 03:58:54;;;;;;;0.20;0.20;;;;;;;23.51;60.45;99073.38;5009005;27;20097;31
2023/08/27 04:01:29;;;;;;;0.05;0.05;;;;;;;23.44;60.45;99076.78;4733680;27;20063;-95
2023/08/27 04:06:58;;;;;;;0.15;0.15;;;;;;;23.34;60.44;99083.94;4679663;27;20105;-96
2023/08/27 04:09:49;;;;;;;0.00;0.00;;;;;;;23.40;60.44;99078.03;4369825;32;20135;-96
2023/08/27 04:12:40;;;;;;;1.95;0.47;;;;;;;23.28;60.44;99082.72;4378813;32;20081;-95
2023/08/27 04:21:01;;;;;;;0.03;0.03;;;;;;;23.26;60.43;99080.22;4400629;32;20150;-95
2023/08/27 04:23:33;;;;;;;0.00;0.00;;;;;;;23.49;60.45;99079.84;4377141;32;20086;-95
2023/08/27 04:25:59;;;;;;;0.25;0.25;;;;;;;23.44;60.45;99074.13;4388491;32;20059;-96
2023/08/27 04:28:45;;;;;;;0.00;0.00;;;;;;;23.51;60.45;99070.72;4374932;32;20103;-96
2023/08/27 04:31:10;;;;;;;2.00;0.60;;;;;;;23.62;60.45;99066.22;4372947;32;20107;-95
2023/08/27 04:33:36;;;;;;;0.57;0.20;;;;;;;23.70;60.46;99061.03;4358972;32;20110;-95
2023/08/27 04:36:04;;;;;;;0.55;0.20;;;;;;;23.61;60.45;99069.84;4377417;32;20085;-96
2023/08/27 04:38:38;;;;;;;0.43;0.43;;;;;;;23.52;60.45;99071.56;4436184;27;20094;-96
2023/08/27 04:56:37;;;;;;;3.72;0.47;;;;;;;24.38;60.50;99056.06;4912225;27;20059;-95
2023/08/27 04:59:09;;;;;;;0.00;0.00;;;;;;;24.26;60.49;99065.22;4355215;32;20101;-96
2023/08/27 05:01:55;;;;;;;0.62;0.52;;;;;;;24.36;60.49;99066.00;4397082;27;20054;-96
2023/08/27 05:04:52;;;;;;;0.10;0.10;;;;;;;24.56;60.50;99062.19;4374105;32;20116;-96
2023/08/27 05:07:17;;;;;;;0.60;0.40;;;;;;;24.47;60.50;99071.09;4355229;32;20113;-96
2023/08/27 05:09:50;;;;;;;0.00;0.00;;;;;;;24.51;60.49;99080.44;4355761;32;20110;-95
2023/08/27 05:21:03;;;;;;;0.28;0.22;;;;;;;24.44;60.49;99095.34;4845941;27;20097;-96
2023/08/27 05:23:44;;;;;;;0.43;0.43;;;;;;;24.51;60.50;99093.75;4311965;33;20120;-96
2023/08/27 05:26:19;;;;;;;0.10;0.10;;;;;;;24.63;60.50;99084.53;4311734;33;20111;-96
2023/08/27 05:28:44;;;;;;;0.55;0.25;;;;;;;24.61;60.50;99075.88;4324957;32;20063;-96
2023/08/27 05:31:15;;;;;;;0.00;0.00;;;;;;;24.77;60.52;99075.97;4358357;32;20107;-95
2023/08/27 05:33:43;;;;;;;0.45;0.20;;;;;;;24.62;60.50;99069.56;4355407;32;20111;-96
2023/08/27 05:36:28;;;;;;;0.13;0.13;;;;;;;24.85;60.52;99066.41;4343946;32;20113;-96
2023/08/27 05:38:56;;;;;;;0.00;0.00;;;;;;;25.03;60.53;99054.72;4347197;32;20077;-96
2023/08/27 05:41:29;;;;;;;0.20;0.20;;;;;;;25.05;60.52;99058.03;4346869;32;20071;-95
2023/08/27 05:44:01;;;;;;;0.90;0.73;;;;;;;24.92;60.52;99060.28;4373231;32;20116;-96
2023/08/27 05:46:34;;;;;;;0.00;0.00;;;;;;;25.18;60.53;99068.28;4359151;32;20456;-96
2023/08/27 05:49:01;;;;;;;0.65;0.50;;;;;;;25.38;60.54;99064.37;4358476;32;20510;-96
2023/08/27 05:51:27;;;;;;;1.45;0.20;;;;;;;25.46;60.54;99073.41;4346626;32;20739;-96
2023/08/27 05:53:57;;;;;;;0.13;0.13;;;;;;;25.56;60.56;99074.13;4372430;32;20129;-96
2023/08/27 05:56:35;;;;;;;0.15;0.15;;;;;;;25.56;60.55;99072.28;4360148;32;20099;-96
2023/08/27 05:59:01;;;;;;;0.30;0.15;;;;;;;25.58;60.56;99069.47;4377040;32;20059;-96
2023/08/27 06:01:51;;;;;;;0.65;0.30;;;;;;;25.65;60.56;99073.13;4353705;32;20138;-96
2023/08/27 06:04:59;;;;;;;0.00;0.00;;;;;;;25.57;60.55;99073.97;4332159;33;20135;-96
2023/08/27 06:11:36;;;;;;;;;;;;;;;;;;;;;
2023/08/27 08:02:21;;;;;;;1.60;1.50;;;;;;;31.04;60.83;98982.06;4440799;27;20212;-95
2023/08/27 08:04:54;;;;;;;0.43;0.30;;;;;;;30.99;60.82;98975.59;4331440;32;20197;-96
2023/08/27 08:07:35;;;;;;;8.25;1.23;;;;;;;31.30;60.84;98978.69;4359375;32;20597;-96
2023/08/27 08:10:06;;;;;;;3.08;1.35;;;;;;;31.39;60.84;98982.03;4348297;32;20111;-96
2023/08/27 08:12:32;;;;;;;1.48;0.45;;;;;;;31.51;60.86;98984.97;4356812;32;20847;-96
2023/08/27 08:14:57;;;;;;;0.68;0.68;;;;;;;31.20;60.83;98983.59;4332405;32;20083;-96
2023/08/27 08:17:23;;;;;;;0.75;0.75;;;;;;;31.31;60.84;98988.41;4328716;32;20108;-96
2023/08/27 08:19:50;;;;;;;0.40;0.40;;;;;;;31.43;60.85;98994.03;4341393;32;20350;-96
2023/08/27 08:22:16;;;;;;;0.55;0.55;;;;;;;31.48;60.85;98969.25;4329542;32;20812;-96
2023/08/27 08:24:42;;;;;;;3.28;1.40;;;;;;;31.79;60.86;98979.50;4329235;32;20117;-96
2023/08/27 08:27:07;;;;;;;2.37;1.52;;;;;;;31.99;60.88;98973.09;4327361;32;20130;-96
2023/08/27 08:30:04;;;;;;;1.17;0.85;;;;;;;32.09;60.88;98971.84;4327400;32;20149;-95
2023/08/27 08:32:29;;;;;;;1.77;0.90;;;;;;;32.24;60.89;98975.19;4328221;32;20113;-95
2023/08/27 08:34:55;;;;;;;0.55;0.55;;;;;;;32.48;60.90;98960.28;4329718;32;20131;-95
2023/08/27 08:37:20;;;;;;;1.70;1.35;;;;;;;32.63;60.91;98963.56;4338262;32;20067;-94
2023/08/27 08:39:46;;;;;;;0.75;0.70;;;;;;;32.61;60.91;98965.66;4351623;32;20141;-93
2023/08/27 08:42:40;;;;;;;0.57;0.57;;;;;;;32.97;60.92;98959.78;4337736;32;20141;-92
2023/08/27 08:45:09;;;;;;;1.90;1.00;;;;;;;33.08;60.93;98961.81;4332235;32;20117;-92
2023/08/27 08:47:38;;;;;;;3.25;1.08;;;;;;;33.21;60.94;98963.66;4350079;32;20130;-93
2023/08/27 08:50:06;;;;;;;0.40;0.40;;;;;;;33.52;60.95;98966.41;4338243;32;20174;-93
2023/08/27 08:52:35;;;;;;;0.90;0.55;;;;;;;33.36;60.95;98968.78;4338338;32;20121;-94
2023/08/27 08:55:00;;;;;;;0.40;0.40;;;;;;;33.60;60.96;98959.97;4326090;32;20095;-94
2023/08/27 08:57:26;;;;;;;0.65;0.50;;;;;;;33.69;60.96;98968.62;4325963;32;20118;-96
2023/08/27 08:59:52;;;;;;;0.35;0.35;;;;;;;33.89;60.96;98961.25;4339007;32;20106;-94
2023/08/27 09:02:18;;;;;;;3.25;1.00;;;;;;;34.09;60.98;98959.25;4350642;32;20144;-94
2023/08/27 09:04:43;;;;;;;1.15;0.70;;;;;;;34.16;60.98;98960.00;4351622;32;20129;-96
2023/08/27 09:07:09;;;;;;;1.65;1.45;;;;;;;34.38;61.00;98956.94;4352787;32;20103;-95
2023/08/27 09:09:34;;;;;;;1.12;1.05;;;;;;;34.54;61.00;98955.53;4354284;32;20123;-91
2023/08/27 09:12:02;;;;;;;0.77;0.75;;;;;;;34.64;61.01;98953.97;4350033;32;20174;-94
2023/08/27 09:14:33;;;;;;;0.25;0.25;;;;;;;34.59;61.00;98955.72;4351368;32;20091;-94
2023/08/27 09:17:19;;;;;;;0.28;0.28;;;;;;;34.77;61.01;98944.88;4352118;32;20111;-94
2023/08/27 09:19:51;;;;;;;1.50;1.23;;;;;;;34.80;61.02;98938.22;4337127;32;20107;-95
2023/08/27 09:22:24;;;;;;;1.25;1.15;;;;;;;34.88;61.02;98938.78;4352549;32;20094;-94
2023/08/27 09:24:49;;;;;;;0.93;0.77;;;;;;;35.16;61.03;98942.81;4344713;33;20107;-95
2023/08/27 09:31:42;;;;;;;1.98;1.10;;;;;;;35.36;61.04;98936.13;4254035;33;20117;-94
2023/08/27 09:34:38;;;;;;;;;;;;;;;;;;;;;
2023/08/27 09:41:06;;;;;;;;;;;;;;;;;;;;;
2023/08/27 18:16:01;;;;;;;1.52;1.42;;;;;;;31.28;60.86;98768.34;4378886;32;20107;-96
2023/08/27 18:18:27;;;;;;;1.20;1.12;;;;;;;31.07;60.86;98769.31;4341281;32;20106;-96
2023/08/27 18:20:53;;;;;;;1.42;1.33;;;;;;;30.99;60.86;98771.34;4335250;32;20096;-93
2023/08/27 18:23:19;;;;;;;2.17;1.20;;;;;;;31.07;60.86;98774.69;4364657;32;20115;-94
2023/08/27 18:25:45;;;;;;;0.50;0.50;;;;;;;30.72;60.84;98784.72;4342240;32;20161;-96
2023/08/27 18:28:11;;;;;;;2.40;1.42;;;;;;;30.53;60.83;98782.78;4366281;32;20078;-94
2023/08/27 18:30:37;;;;;;;0.95;0.95;;;;;;;30.50;60.83;98780.47;4341823;32;20102;-94
2023/08/27 18:33:04;;;;;;;0.85;0.85;;;;;;;30.39;60.82;98781.03;4365694;32;20087;-94
2023/08/27 18:35:30;;;;;;;0.77;0.77;;;;;;;30.46;60.83;98779.22;4356358;32;20170;-94
2023/08/27 18:37:56;;;;;;;1.37;1.27;;;;;;;30.21;60.82;98771.66;4353078;32;20119;-92
2023/08/27 18:40:22;;;;;;;0.50;0.50;;;;;;;30.17;60.80;98770.41;4355293;32;20095;-93
2023/08/27 18:42:50;;;;;;;1.62;0.82;;;;;;;29.78;60.79;98772.78;4364464;32;20095;-92
2023/08/27 18:45:17;;;;;;;2.25;2.05;;;;;;;29.76;60.79;98774.84;4357034;32;20119;-93
2023/08/27 18:47:43;;;;;;;1.87;1.65;;;;;;;29.59;60.78;98772.47;4350002;32;20128;-93
2023/08/27 18:50:11;;;;;;;1.40;1.23;;;;;;;29.54;60.78;98769.53;4340272;32;20111;-93
2023/08/27 18:52:37;;;;;;;5.22;1.65;;;;;;;29.37;60.77;98788.75;4365176;32;20165;-93
2023/08/27 18:55:04;;;;;;;0.57;0.52;;;;;;;29.56;60.78;98788.09;4340772;32;20133;-94
2023/08/27 18:57:31;;;;;;;1.08;0.95;;;;;;;29.52;60.78;98790.34;4337512;32;20110;-94
2023/08/27 18:59:58;;;;;;;1.12;1.02;;;;;;;29.35;60.77;98778.22;4326714;32;20095;-95
2023/08/27 19:02:24;;;;;;;0.55;0.55;;;;;;;29.21;60.76;98779.94;4338683;32;20146;-95
2023/08/27 19:04:53;;;;;;;1.27;1.17;;;;;;;29.20;60.76;98783.66;4326381;32;20118;-95
2023/08/27 19:07:21;;;;;;;0.55;0.55;;;;;;;29.20;60.76;98780.97;4339477;32;20103;-94
2023/08/27 19:10:00;;;;;;;;;;;;;;;;;;;;;
2023/08/27 19:12:27;;;;;;;1.87;1.37;;;;;;;28.99;60.75;98776.44;4331716;32;35711;-95
2023/08/27 19:14:56;;;;;;;1.23;0.85;;;;;;;28.98;60.74;98785.50;4338417;32;20487;-96
2023/08/27 19:17:24;;;;;;;1.33;1.02;;;;;;;29.09;60.76;98784.13;4327211;32;20115;-94
2023/08/27 19:19:54;;;;;;;2.40;0.75;;;;;;;28.74;60.74;98783.13;4338837;32;20103;-95
2023/08/27 19:22:25;;;;;;;0.45;0.45;;;;;;;28.61;60.74;98786.47;4338893;32;20513;-94
2023/08/27 19:24:57;;;;;;;1.95;1.80;;;;;;;28.85;60.75;98784.47;4339332;32;20167;-95
2023/08/27 19:27:26;;;;;;;1.48;1.35;;;;;;;28.50;60.72;98778.09;4327406;32;20192;-95
2023/08/27 19:29:55;;;;;;;2.37;1.12;;;;;;;28.49;60.72;98779.13;4338980;32;20166;-96
2023/08/27 19:32:23;;;;;;;3.00;2.63;;;;;;;28.43;60.71;98773.50;4333097;32;20103;-95
2023/08/27 19:34:49;;;;;;;1.30;1.20;;;;;;;28.10;60.70;98777.53;4325736;33;20162;-95
2023/08/27 19:37:15;;;;;;;1.30;0.95;;;;;;;27.97;60.70;98774.69;4336589;33;20116;-92
2023/08/27 19:39:42;;;;;;;1.55;1.37;;;;;;;28.11;60.70;98771.16;4338276;32;20087;-93
2023/08/27 19:42:10;;;;;;;1.73;1.33;;;;;;;27.94;60.69;98781.25;4338578;32;20106;-94
2023/08/27 19:44:38;;;;;;;4.15;2.10;;;;;;;27.78;60.69;98770.69;4338039;32;20099;-94
2023/08/27 19:47:04;;;;;;;2.53;1.30;;;;;;;27.70;60.68;98768.94;4338517;32;20111;-93
2023/08/27 19:49:30;;;;;;;1.37;1.25;;;;;;;27.65;60.68;98768.63;4350676;32;20126;-95
2023/08/27 19:51:57;;;;;;;0.77;0.73;;;;;;;27.85;60.69;98768.13;4351151;32;20113;-94
2023/08/27 19:54:24;;;;;;;0.88;0.85;;;;;;;27.57;60.67;98781.22;4333987;33;20175;-93
2023/08/27 19:56:50;;;;;;;0.88;0.88;;;;;;;27.74;60.67;98777.44;4348310;33;20111;-94
2023/08/27 19:59:16;;;;;;;4.12;2.35;;;;;;;28.01;60.70;98779.47;4337103;32;20082;-94
2023/08/27 20:01:46;;;;;;;0.65;0.65;;;;;;;27.91;60.69;98778.06;4338578;32;20764;-95
2023/08/27 20:04:12;;;;;;;1.10;0.77;;;;;;;27.68;60.68;98778.12;4329010;32;20063;-94
2023/08/27 20:06:41;;;;;;;2.10;1.77;;;;;;;27.61;60.68;98777.19;4338686;32;20168;-95
2023/08/27 20:09:32;;;;;;;0.98;0.98;;;;;;;27.49;60.66;98785.66;4348414;32;20156;-95
2023/08/27 20:12:55;;;;;;;;;;;;;;;;;;;;;
2023/08/27 20:21:44;;;;;;;;;;;;;;;;;;;;;
